createdAt,value
2022-10-29T00:00:51.227Z,83.57
2022-10-29T00:03:18.311Z,84.15
2022-10-29T00:05:54.885Z,84.50
2022-10-29T00:08:21.466Z,84.95
2022-10-29T00:10:48.074Z,85.16
2022-10-29T00:13:14.956Z,85.33
2022-10-29T00:15:41.596Z,85.04
2022-10-29T00:18:08.261Z,85.00
2022-10-29T00:20:34.929Z,84.56
2022-10-29T00:23:01.578Z,84.96
2022-10-29T00:25:28.282Z,84.37
2022-10-29T00:27:56.554Z,84.79
2022-10-29T00:30:23.169Z,84.64
2022-10-29T00:32:49.837Z,84.59
2022-10-29T00:35:16.474Z,84.96
2022-10-29T00:37:43.199Z,84.67
2022-10-29T00:40:10.664Z,84.85
2022-10-29T00:42:38.671Z,84.98
2022-10-29T00:45:06.081Z,85.19
2022-10-29T00:47:37.481Z,85.34
2022-10-29T00:50:08.861Z,85.43
2022-10-29T00:52:40.513Z,85.27
2022-10-29T00:55:09.771Z,84.97
2022-10-29T00:57:40.197Z,84.97
2022-10-29T01:00:07.622Z,84.48
2022-10-29T01:02:36.327Z,84.71
2022-10-29T01:05:05.254Z,84.58
2022-10-29T01:07:32.226Z,84.51
2022-10-29T01:09:59.123Z,85.45
2022-10-29T01:13:02.927Z,85.29
2022-10-29T01:15:42.659Z,85.72
2022-10-29T01:18:37.782Z,86.42
2022-10-29T01:21:24.074Z,86.99
2022-10-29T01:24:25.189Z,87.41
2022-10-29T01:27:26.308Z,87.09
2022-10-29T01:30:47.340Z,87.47
2022-10-29T01:33:29.478Z,86.94
2022-10-29T01:36:07.641Z,86.88
2022-10-29T01:38:51.481Z,86.70
2022-10-29T01:41:23.623Z,86.91
2022-10-29T01:44:03.909Z,84.16
2022-10-29T01:46:46.450Z,84.02
2022-10-29T01:49:18.709Z,85.25
2022-10-29T01:51:46.385Z,84.20
2022-10-29T01:54:13.281Z,85.42
2022-10-29T01:56:39.939Z,85.44
2022-10-29T01:59:18.123Z,86.09
2022-10-29T02:02:37.171Z,86.31
2022-10-29T02:05:30.989Z,85.53
2022-10-29T02:08:03.443Z,85.99
2022-10-29T02:10:40.687Z,84.94
2022-10-29T02:13:12.474Z,85.67
2022-10-29T02:15:43.695Z,84.30
2022-10-29T02:18:10.551Z,84.77
2022-10-29T02:20:42.145Z,85.12
2022-10-29T02:23:09.335Z,84.88
2022-10-29T02:25:36.146Z,84.77
2022-10-29T02:28:02.968Z,82.06
2022-10-29T02:30:29.624Z,82.88
2022-10-29T02:32:56.588Z,82.12
2022-10-29T02:35:23.721Z,82.84
2022-10-29T02:37:50.390Z,83.63
2022-10-29T02:40:17.178Z,84.37
2022-10-29T02:42:43.878Z,84.12
2022-10-29T02:45:10.763Z,81.93
2022-10-29T02:47:37.500Z,80.59
2022-10-29T02:50:10.027Z,79.98
2022-10-29T02:52:40.509Z,81.94
2022-10-29T02:55:09.330Z,82.92
2022-10-29T02:57:37.058Z,83.12
2022-10-29T03:00:06.597Z,82.31
2022-10-29T03:02:33.371Z,83.00
2022-10-29T03:05:00.022Z,82.82
2022-10-29T03:07:26.617Z,82.19
2022-10-29T03:09:53.225Z,83.59
2022-10-29T03:12:19.935Z,82.98
2022-10-29T03:14:46.721Z,83.93
2022-10-29T03:17:13.288Z,84.70
2022-10-29T03:19:40.053Z,84.91
2022-10-29T03:22:06.748Z,83.67
2022-10-29T03:24:33.402Z,82.40
2022-10-29T03:27:00.134Z,82.01
2022-10-29T03:29:26.729Z,81.60
2022-10-29T03:31:53.457Z,82.75
2022-10-29T03:34:20.157Z,81.35
2022-10-29T03:36:46.926Z,81.11
2022-10-29T03:39:13.559Z,80.27
2022-10-29T03:41:40.301Z,80.83
2022-10-29T03:44:06.991Z,80.00
2022-10-29T03:46:34.238Z,81.26
2022-10-29T03:49:00.984Z,80.10
2022-10-29T03:51:27.699Z,80.62
2022-10-29T03:53:54.357Z,80.77
2022-10-29T03:56:20.988Z,80.75
2022-10-29T03:58:47.688Z,81.92
2022-10-29T04:01:14.493Z,82.08
2022-10-29T04:03:42.279Z,82.70
2022-10-29T04:06:12.023Z,82.54
2022-10-29T04:08:38.947Z,82.74
2022-10-29T04:11:05.860Z,83.20
2022-10-29T04:13:32.632Z,83.21
2022-10-29T04:15:59.326Z,83.02
2022-10-29T04:18:26.101Z,83.44
2022-10-29T04:28:36.872Z,82.76
2022-10-29T04:29:14.051Z,81.18
2022-10-29T04:31:40.740Z,81.30
2022-10-29T04:34:07.415Z,81.36
2022-10-29T04:36:34.029Z,81.12
2022-10-29T04:39:00.752Z,82.21
2022-10-29T04:41:27.317Z,81.97
2022-10-29T04:43:54.047Z,81.87
2022-10-29T04:46:20.657Z,82.21
2022-10-29T04:48:47.362Z,79.87
2022-10-29T04:51:25.656Z,79.62
2022-10-29T04:53:52.397Z,81.10
2022-10-29T04:56:19.152Z,81.96
2022-10-29T04:58:45.775Z,82.12
2022-10-29T05:01:12.530Z,79.98
2022-10-29T05:03:39.403Z,79.87
2022-10-29T05:06:06.845Z,80.39
2022-10-29T05:08:34.250Z,80.19
2022-10-29T05:11:07.312Z,80.05
2022-10-29T05:13:34.523Z,80.61
2022-10-29T05:16:01.685Z,79.30
2022-10-29T05:18:28.353Z,79.94
2022-10-29T05:20:55.922Z,80.62
2022-10-29T05:23:23.438Z,81.65
2022-10-29T05:25:51.993Z,82.04
2022-10-29T05:28:21.041Z,81.63
2022-10-29T05:30:49.907Z,81.85
2022-10-29T05:33:24.477Z,81.81
2022-10-29T05:35:51.711Z,79.88
2022-10-29T05:38:19.337Z,80.35
2022-10-29T05:40:46.223Z,81.24
2022-10-29T05:43:14.768Z,79.09
2022-10-29T05:45:42.324Z,76.38
2022-10-29T05:50:42.941Z,76.82
2022-10-29T05:53:12.166Z,77.73
2022-10-29T05:55:39.825Z,78.25
2022-10-29T05:58:10.292Z,77.82
2022-10-29T06:00:38.885Z,77.65
2022-10-29T06:03:17.186Z,78.44
2022-10-29T06:05:45.869Z,78.93
2022-10-29T06:08:12.605Z,78.75
2022-10-29T06:10:39.357Z,79.02
2022-10-29T06:13:11.044Z,77.84
2022-10-29T06:15:37.651Z,78.86
2022-10-29T06:18:04.393Z,79.49
2022-10-29T06:20:31.043Z,77.84
2022-10-29T06:22:59.003Z,79.28
2022-10-29T06:25:27.314Z,78.99
2022-10-29T06:28:08.871Z,79.60
2022-10-29T06:30:36.469Z,80.59
2022-10-29T06:33:04.924Z,81.16
2022-10-29T06:35:32.038Z,80.08
2022-10-29T06:37:59.227Z,79.90
2022-10-29T06:40:26.395Z,78.79
2022-10-29T06:43:04.781Z,79.72
2022-10-29T06:45:33.281Z,79.13
2022-10-29T06:48:00.452Z,79.58
2022-10-29T06:50:33.679Z,79.29
2022-10-29T06:53:03.559Z,79.38
2022-10-29T06:55:33.469Z,79.81
2022-10-29T06:58:09.946Z,79.81
2022-10-29T07:00:40.169Z,81.25
2022-10-29T07:03:13.299Z,80.32
2022-10-29T07:05:40.429Z,79.87
2022-10-29T07:08:08.531Z,80.13
2022-10-29T07:10:35.993Z,80.66
2022-10-29T07:13:03.282Z,80.63
2022-10-29T07:15:31.117Z,80.13
2022-10-29T07:18:03.670Z,80.13
2022-10-29T07:20:33.950Z,80.26
2022-10-29T07:23:01.493Z,81.10
2022-10-29T07:25:29.701Z,81.40
2022-10-29T07:28:04.122Z,80.76
2022-10-29T07:30:31.185Z,80.14
2022-10-29T07:32:57.792Z,81.21
2022-10-29T07:35:24.413Z,80.78
2022-10-29T07:37:51.050Z,80.72
2022-10-29T07:40:17.728Z,81.43
2022-10-29T07:42:44.359Z,80.11
2022-10-29T07:45:11.190Z,80.29
2022-10-29T07:47:38.071Z,78.64
2022-10-29T07:50:05.021Z,79.35
2022-10-29T07:52:31.707Z,79.26
2022-10-29T07:55:00.453Z,79.39
2022-10-29T07:57:27.091Z,78.81
2022-10-29T07:59:53.769Z,78.66
2022-10-29T08:02:20.495Z,79.37
2022-10-29T08:04:47.169Z,79.15
2022-10-29T08:07:13.809Z,79.12
2022-10-29T08:09:40.772Z,80.05
2022-10-29T08:12:11.432Z,79.36
2022-10-29T08:14:38.097Z,78.91
2022-10-29T08:17:04.732Z,79.29
2022-10-29T08:19:31.433Z,79.84
2022-10-29T08:21:58.024Z,79.85
2022-10-29T08:24:24.702Z,80.52
2022-10-29T08:26:51.476Z,79.76
2022-10-29T08:29:18.261Z,79.58
2022-10-29T08:31:45.020Z,80.34
2022-10-29T08:34:11.685Z,81.13
2022-10-29T08:36:38.728Z,79.54
2022-10-29T08:39:05.334Z,80.54
2022-10-29T08:41:45.798Z,79.77
2022-10-29T08:44:33.488Z,79.68
2022-10-29T08:47:14.912Z,80.38
2022-10-29T08:50:17.980Z,80.53
2022-10-29T08:52:53.076Z,79.26
2022-10-29T08:55:33.710Z,79.11
2022-10-29T08:58:17.433Z,78.15
2022-10-29T09:00:44.440Z,77.79
2022-10-29T09:03:12.719Z,77.67
2022-10-29T09:06:04.766Z,77.90
2022-10-29T09:08:38.196Z,78.23
2022-10-29T09:11:26.219Z,78.97
2022-10-29T09:14:11.170Z,78.29
2022-10-29T09:17:19.891Z,77.47
2022-10-29T09:19:58.507Z,77.83
2022-10-29T09:23:19.132Z,76.64
2022-10-29T09:26:17.529Z,75.10
2022-10-29T09:29:17.528Z,73.88
2022-10-29T09:31:49.081Z,71.76
2022-10-29T09:34:29.258Z,71.15
2022-10-29T09:36:56.904Z,70.89
2022-10-29T09:39:34.323Z,69.83
2022-10-29T09:42:03.104Z,69.84
2022-10-29T09:44:39.679Z,68.39
2022-10-29T09:47:36.149Z,68.04
2022-10-29T09:50:19.447Z,68.50
2022-10-29T09:52:48.602Z,67.69
2022-10-29T09:55:28.247Z,67.80
2022-10-29T09:57:58.778Z,68.01
2022-10-29T10:00:30.685Z,66.42
2022-10-29T10:03:18.369Z,65.93
2022-10-29T10:06:01.793Z,66.84
2022-10-29T10:08:29.773Z,66.80
2022-10-29T10:11:03.116Z,64.54
2022-10-29T10:13:32.374Z,64.13
2022-10-29T10:16:01.236Z,64.65
2022-10-29T10:18:48.083Z,65.06
2022-10-29T10:21:26.317Z,65.28
2022-10-29T10:23:54.691Z,64.37
2022-10-29T10:26:43.419Z,63.38
2022-10-29T10:29:18.616Z,63.02
2022-10-29T10:31:50.028Z,62.93
2022-10-29T10:34:22.552Z,63.58
2022-10-29T10:36:55.614Z,64.13
2022-10-29T10:39:27.630Z,64.76
2022-10-29T10:41:56.418Z,64.87
2022-10-29T10:44:23.958Z,64.49
2022-10-29T10:46:54.459Z,64.74
2022-10-29T10:49:36.887Z,64.94
2022-10-29T10:52:18.225Z,65.50
2022-10-29T10:55:01.077Z,64.22
2022-10-29T10:57:39.142Z,64.64
2022-10-29T11:00:19.634Z,64.22
2022-10-29T11:02:54.063Z,64.77
2022-10-29T11:06:01.796Z,64.74
2022-10-29T11:09:07.285Z,65.10
2022-10-29T11:11:44.158Z,64.42
2022-10-29T11:14:17.852Z,64.83
2022-10-29T11:16:52.271Z,64.03
2022-10-29T11:19:44.810Z,64.28
2022-10-29T11:22:22.304Z,64.40
2022-10-29T11:25:31.804Z,63.93
2022-10-29T11:28:14.806Z,64.43
2022-10-29T11:30:49.653Z,63.46
2022-10-29T11:33:41.924Z,63.23
2022-10-29T11:36:27.212Z,64.10
2022-10-29T11:38:59.784Z,64.81
2022-10-29T11:41:33.708Z,64.06
2022-10-29T11:44:01.126Z,64.30
2022-10-29T11:47:01.538Z,64.23
2022-10-29T11:49:44.693Z,64.51
2022-10-29T11:52:15.484Z,64.36
2022-10-29T11:55:02.298Z,63.93
2022-10-29T11:57:48.564Z,63.58
2022-10-29T12:00:20.005Z,63.91
2022-10-29T12:03:19.059Z,64.21
2022-10-29T12:06:10.339Z,64.80
2022-10-29T12:09:01.209Z,64.34
2022-10-29T12:12:03.852Z,64.59
2022-10-29T12:15:00.433Z,65.28
2022-10-29T12:18:12.699Z,65.41
2022-10-29T12:21:09.553Z,64.86
2022-10-29T12:23:55.189Z,65.28
2022-10-29T12:26:53.428Z,64.71
2022-10-29T12:29:34.672Z,64.49
2022-10-29T12:32:23.564Z,64.71
2022-10-29T12:35:00.115Z,64.99
2022-10-29T12:37:49.385Z,64.31
2022-10-29T12:43:11.808Z,64.65
2022-10-29T12:46:18.436Z,65.07
2022-10-29T12:49:00.631Z,65.40
2022-10-29T12:51:49.974Z,65.28
2022-10-29T12:54:29.074Z,65.33
2022-10-29T12:57:04.344Z,65.03
2022-10-29T12:59:34.488Z,65.27
2022-10-29T13:02:27.448Z,64.92
2022-10-29T13:05:18.383Z,64.61
2022-10-29T13:07:45.442Z,64.89
2022-10-29T13:10:29.687Z,64.81
2022-10-29T13:13:16.317Z,65.50
2022-10-29T13:15:49.293Z,65.32
2022-10-29T13:18:42.145Z,64.83
2022-10-29T13:21:11.947Z,64.90
2022-10-29T13:23:42.403Z,64.88
2022-10-29T13:26:12.999Z,65.36
2022-10-29T13:28:39.888Z,65.22
2022-10-29T13:31:33.534Z,65.04
2022-10-29T13:34:00.988Z,64.57
2022-10-29T13:36:38.581Z,65.22
2022-10-29T13:39:19.229Z,65.10
2022-10-29T13:41:54.390Z,65.46
2022-10-29T13:44:29.108Z,65.68
2022-10-29T13:47:04.309Z,64.96
2022-10-29T13:49:48.163Z,65.11
2022-10-29T13:52:24.899Z,65.21
2022-10-29T13:54:59.397Z,64.30
2022-10-29T13:58:02.879Z,64.45
2022-10-29T14:00:38.295Z,64.24
2022-10-29T14:03:16.139Z,63.41
2022-10-29T14:05:52.509Z,63.85
2022-10-29T14:08:46.094Z,64.11
2022-10-29T14:11:29.886Z,63.67
2022-10-29T14:14:03.230Z,63.59
2022-10-29T14:16:34.539Z,63.78
2022-10-29T14:19:19.607Z,64.32
2022-10-29T14:21:46.596Z,64.76
2022-10-29T14:24:16.289Z,64.68
2022-10-29T14:26:45.000Z,64.75
2022-10-29T14:29:25.686Z,65.09
2022-10-29T14:32:12.442Z,64.93
2022-10-29T14:34:40.685Z,65.04
2022-10-29T14:37:30.815Z,66.05
2022-10-29T14:40:06.464Z,66.64
2022-10-29T14:42:43.000Z,67.02
2022-10-29T14:45:39.001Z,67.83
2022-10-29T14:48:15.349Z,67.67
2022-10-29T14:50:47.952Z,67.54
2022-10-29T14:53:30.516Z,67.85
2022-10-29T14:55:59.604Z,68.21
2022-10-29T14:58:33.538Z,68.37
2022-10-29T15:01:05.219Z,67.29
2022-10-29T15:03:53.281Z,68.26
2022-10-29T15:06:28.157Z,68.68
2022-10-29T15:09:05.697Z,68.78
2022-10-29T15:11:42.505Z,69.18
2022-10-29T15:14:39.997Z,69.19
2022-10-29T15:17:17.710Z,69.17
2022-10-29T15:19:46.192Z,70.23
2022-10-29T15:22:21.946Z,70.36
2022-10-29T15:24:52.039Z,68.72
2022-10-29T15:27:18.933Z,69.05
2022-10-29T15:29:48.129Z,69.36
2022-10-29T15:32:17.059Z,69.76
2022-10-29T15:34:49.475Z,69.50
2022-10-29T15:37:19.077Z,69.25
2022-10-29T15:40:21.738Z,69.89
2022-10-29T15:42:48.876Z,69.09
2022-10-29T15:45:31.265Z,69.49
2022-10-29T15:48:38.482Z,70.24
2022-10-29T15:51:09.202Z,71.00
2022-10-29T15:53:44.518Z,71.41
2022-10-29T15:56:14.646Z,71.93
2022-10-29T15:58:45.966Z,72.29
2022-10-29T16:01:18.330Z,72.53
2022-10-29T16:03:48.775Z,72.88
2022-10-29T16:06:16.505Z,72.93
2022-10-29T16:08:55.586Z,72.76
2022-10-29T16:11:23.083Z,72.90
2022-10-29T16:13:54.796Z,72.90
2022-10-29T16:16:24.177Z,73.30
2022-10-29T16:18:52.719Z,73.60
2022-10-29T16:21:23.123Z,74.01
2022-10-29T16:23:55.528Z,74.15
2022-10-29T16:26:24.849Z,74.51
2022-10-29T16:28:55.559Z,74.53
2022-10-29T16:31:26.137Z,74.69
2022-10-29T16:34:01.708Z,74.77
2022-10-29T16:36:30.079Z,75.06
2022-10-29T16:39:04.598Z,75.40
2022-10-29T16:41:35.737Z,75.74
2022-10-29T16:44:04.458Z,76.04
2022-10-29T16:46:34.455Z,76.12
2022-10-29T16:49:05.540Z,76.00
2022-10-29T16:51:32.634Z,75.85
2022-10-29T16:54:01.122Z,76.04
2022-10-29T16:56:31.961Z,76.42
2022-10-29T16:59:02.075Z,76.53
2022-10-29T17:01:29.880Z,76.87
2022-10-29T17:04:00.455Z,77.16
2022-10-29T17:06:31.827Z,77.36
2022-10-29T17:09:01.326Z,77.62
2022-10-29T17:11:30.572Z,78.06
2022-10-29T17:13:58.322Z,78.30
2022-10-29T17:16:25.582Z,78.40
2022-10-29T17:18:54.198Z,78.63
2022-10-29T17:21:21.046Z,78.66
2022-10-29T17:23:50.043Z,78.84
2022-10-29T17:26:20.868Z,78.66
2022-10-29T17:28:55.459Z,79.18
2022-10-29T17:31:22.452Z,78.04
2022-10-29T17:33:52.477Z,77.51
2022-10-29T17:36:19.968Z,76.46
2022-10-29T17:38:47.319Z,77.00
2022-10-29T17:41:14.516Z,77.33
2022-10-29T17:43:42.266Z,77.41
2022-10-29T17:46:12.482Z,78.14
2022-10-29T17:48:44.609Z,78.67
2022-10-29T17:51:11.937Z,79.20
2022-10-29T17:53:41.580Z,79.62
2022-10-29T17:56:08.594Z,79.57
2022-10-29T17:58:39.512Z,79.74
2022-10-29T18:01:12.059Z,80.28
2022-10-29T18:03:39.207Z,80.87
2022-10-29T18:06:16.157Z,80.60
2022-10-29T18:08:43.112Z,80.74
2022-10-29T18:11:15.226Z,80.58
2022-10-29T18:13:42.926Z,80.28
2022-10-29T18:16:23.240Z,80.12
2022-10-29T18:19:02.192Z,80.51
2022-10-29T18:21:32.323Z,80.58
2022-10-29T18:23:59.404Z,81.15
2022-10-29T18:26:34.676Z,80.99
2022-10-29T18:29:06.605Z,81.23
2022-10-29T18:31:37.928Z,81.09
2022-10-29T18:34:07.647Z,81.36
2022-10-29T18:36:42.057Z,80.69
2022-10-29T18:39:10.010Z,81.31
2022-10-29T18:41:40.817Z,81.36
2022-10-29T18:44:10.699Z,80.96
2022-10-29T18:46:37.682Z,80.85
2022-10-29T18:49:06.576Z,81.34
2022-10-29T18:51:34.277Z,82.42
2022-10-29T18:54:04.327Z,83.09
2022-10-29T18:56:31.832Z,83.73
2022-10-29T18:59:00.396Z,84.25
2022-10-29T19:01:32.006Z,83.87
2022-10-29T19:04:06.246Z,84.07
2022-10-29T19:06:39.305Z,84.51
2022-10-29T19:09:10.154Z,84.44
2022-10-29T19:11:37.291Z,84.35
2022-10-29T19:14:06.890Z,84.27
2022-10-29T19:16:35.428Z,84.24
2022-10-29T19:19:07.449Z,84.42
2022-10-29T19:21:36.050Z,84.65
2022-10-29T19:24:03.742Z,83.70
2022-10-29T19:26:38.075Z,83.88
2022-10-29T19:29:06.662Z,84.06
2022-10-29T19:31:35.855Z,84.46
2022-10-29T19:34:11.712Z,84.63
2022-10-29T19:36:43.283Z,84.81
2022-10-29T19:39:14.294Z,85.13
2022-10-29T19:41:46.450Z,85.13
2022-10-29T19:44:17.505Z,85.19
2022-10-29T19:46:44.493Z,84.92
2022-10-29T19:49:12.290Z,83.83
2022-10-29T19:51:40.636Z,83.72
2022-10-29T19:54:08.298Z,84.61
2022-10-29T19:56:35.814Z,85.57
2022-10-29T19:59:05.066Z,85.70
2022-10-29T20:01:32.521Z,85.63
2022-10-29T20:03:59.682Z,85.68
2022-10-29T20:06:26.623Z,85.76
2022-10-29T20:08:53.814Z,85.67
2022-10-29T20:11:20.767Z,85.95
2022-10-29T20:13:52.695Z,85.81
2022-10-29T20:16:21.291Z,86.03
2022-10-29T20:18:49.115Z,86.24
2022-10-29T20:21:16.831Z,85.90
2022-10-29T20:23:45.817Z,85.62
2022-10-29T20:26:13.140Z,85.74
2022-10-29T20:28:41.526Z,85.74
2022-10-29T20:31:26.120Z,85.58
2022-10-29T20:33:58.443Z,85.65
2022-10-29T20:36:27.582Z,85.62
2022-10-29T20:38:57.103Z,85.74
2022-10-29T20:41:26.433Z,85.15
2022-10-29T20:44:03.304Z,84.91
2022-10-29T20:46:30.327Z,84.71
2022-10-29T20:48:57.771Z,85.07
2022-10-29T20:51:25.064Z,85.00
2022-10-29T20:53:54.397Z,85.29
2022-10-29T20:56:24.420Z,85.59
2022-10-29T20:58:55.252Z,85.55
2022-10-29T21:01:24.755Z,85.60
2022-10-29T21:03:51.981Z,85.05
2022-10-29T21:06:20.975Z,84.60
2022-10-29T21:08:51.448Z,84.14
2022-10-29T21:11:20.133Z,84.42
2022-10-29T21:13:47.513Z,84.61
2022-10-29T21:16:29.241Z,84.93
2022-10-29T21:19:00.397Z,84.78
2022-10-29T21:21:32.987Z,83.40
2022-10-29T21:24:01.055Z,79.98
2022-10-29T21:26:31.909Z,80.39
2022-10-29T21:28:59.453Z,78.84
2022-10-29T21:31:27.499Z,79.58
2022-10-29T21:33:55.963Z,79.85
2022-10-29T21:36:25.040Z,80.34
2022-10-29T21:38:56.903Z,78.58
2022-10-29T21:41:24.115Z,78.53
2022-10-29T21:43:51.019Z,78.64
2022-10-29T21:46:20.662Z,79.28
2022-10-29T21:48:48.723Z,79.54
2022-10-29T21:51:17.061Z,80.37
2022-10-29T21:53:46.791Z,80.96
2022-10-29T21:56:15.352Z,81.50
2022-10-29T21:58:42.933Z,81.78
2022-10-29T22:01:16.875Z,82.20
2022-10-29T22:03:48.660Z,82.76
2022-10-29T22:06:21.006Z,82.65
2022-10-29T22:08:54.915Z,82.44
2022-10-29T22:11:24.021Z,82.74
2022-10-29T22:13:52.385Z,82.74
2022-10-29T22:16:28.045Z,82.89
2022-10-29T22:18:55.927Z,83.00
2022-10-29T22:21:26.681Z,82.38
2022-10-29T22:23:56.154Z,82.20
2022-10-29T22:26:29.227Z,82.56
2022-10-29T22:28:57.718Z,82.96
2022-10-29T22:31:25.763Z,82.43
2022-10-29T22:33:53.088Z,83.41
2022-10-29T22:36:22.563Z,83.16
2022-10-29T22:39:01.288Z,83.19
2022-10-29T22:41:29.597Z,83.74
2022-10-29T22:43:59.295Z,84.23
2022-10-29T22:46:29.080Z,84.39
2022-10-29T22:48:56.766Z,84.14
2022-10-29T22:51:30.660Z,84.37
2022-10-29T22:53:58.746Z,84.78
2022-10-29T22:56:31.366Z,84.75
2022-10-29T22:59:00.718Z,84.41
2022-10-29T23:01:31.853Z,84.67
2022-10-29T23:03:59.710Z,85.49
2022-10-29T23:06:27.966Z,85.89
2022-10-29T23:09:02.673Z,85.96
2022-10-29T23:11:32.075Z,85.43
2022-10-29T23:14:00.491Z,84.30
2022-10-29T23:16:29.848Z,85.63
2022-10-29T23:18:59.513Z,83.98
2022-10-29T23:21:26.740Z,82.84
2022-10-29T23:23:54.317Z,82.85
2022-10-29T23:26:22.776Z,83.23
2022-10-29T23:28:49.641Z,83.73
2022-10-29T23:31:22.117Z,83.77
2022-10-29T23:33:51.919Z,82.67
2022-10-29T23:36:22.102Z,83.58
2022-10-29T23:38:57.887Z,83.96
2022-10-29T23:41:28.863Z,84.54
2022-10-29T23:44:02.100Z,85.20
2022-10-29T23:46:30.964Z,83.41
2022-10-29T23:48:59.075Z,83.93
2022-10-29T23:51:25.857Z,84.80
2022-10-29T23:53:56.465Z,82.91
2022-10-29T23:56:24.841Z,81.50
2022-10-29T23:58:51.469Z,83.04
